Archival Weather

Chicago O'Hare International

Chicago, Illinois (KORD)

Report from: Monday, December 12, 2022 2:51 PM CST
Current time: Friday, June 21, 2024 2:23 AM CDT

Current weather – Weather history – Daily summaries
Weather forecast

Temperature5.0°C (41.0°F)
Wind chill2.1°C (35.8°F)
Dew point-2.2°C (28.0°F)
Winds 7 kts (3.6 m/s, 8.1 mph) Southeast (130°)
Visibility10 mi. (16.1 km)
Clouds Ceiling: Overcast 3,000 ft. (914 m)
Altimeter30.26 in.Hg (1025 mB)
Relative humidity60 %
Density altitude-1,536 ft. (-468 m)
Sea-level pressure102.5 kPa (1025 mB, 30.28 in.Hg)
Remarks Automated weather observing station with precipitation discriminator
Pressure falling, then rising
Flight conditions Visual Meteorological Conditions
Raw dataKORD 122051Z 13007KT 10SM OVC030 05/M02 A3026 RMK AO2 SLP253 T00501022 55006
An error has occurred. This application may no longer respond until reloaded. Reload 🗙